Tropical Cyclones
[Index]
Main Index Home Page Stock Weather Photos Extreme Storms Discussion Storm News and Storm Chasing Reports Tropical Cyclones / Hurricanes / Typhoons Weather Data and Links Wild Fires / Bushfires Weather Observation Techniques Weather Picture Catalogue Tornado Pictures and Reports Stock Video Footage and DVDs for sale
Season 2016-2017 Tropical Cyclone ABELA Track Map
Season 2016-2017 Summaries (Operational Data): [AU] [SIO] [SPAC] [SH]
<<- Previous TC | 2016-2017 Season | Next TC ->>

click for intensity scale information  Lat/long Grid: Show Hide

 Date Labels: Show Hide

Operational Tropical Cyclone Data : JTWC Advisories

Name: ABELA
Number: 1701

08 Jul 2016 18:00 UTC to 20 Jul 2016 18:00 UTC

    date/time    lat    long     hPa   cat  kts
2016-07-08 18    2.9    89.1    1010         15          
2016-07-09 00    2.9    88.0    1010         15          
2016-07-09 06    2.9    87.3    1010         15          
2016-07-09 12    3.2    86.3    1010         15          
2016-07-09 18    3.9    85.2    1009         15          
2016-07-10 00    4.1    84.4    1010         15          
2016-07-10 06    4.2    83.5    1009         15          
2016-07-10 12    4.4    82.2    1010         15          
2016-07-10 18    4.6    80.8    1010         15          
2016-07-11 00    4.6    79.6    1007         20          
2016-07-11 06    4.7    79.0    1007         20          
2016-07-11 12    4.9    78.5    1007         20          
2016-07-11 18    5.2    78.0    1007         20          
2016-07-12 00    5.6    77.4    1007         20          
2016-07-12 06    6.0    76.9    1007         20          
2016-07-12 12    6.5    76.4    1007         20          
2016-07-12 18    7.2    75.7    1007         20          
2016-07-13 00    7.5    75.0    1007         20          
2016-07-13 06    7.8    74.1    1005         25          
2016-07-13 12    8.1    73.0    1005         25          
2016-07-13 18    8.2    72.0    1004         25          
2016-07-14 00    8.4    71.3    1004         25          
2016-07-14 06    8.5    70.7    1004         25          
2016-07-14 12    8.6    70.1    1004         25          
2016-07-14 18    8.8    69.6    1004         25          
2016-07-15 00    9.0    69.0    1004         25          
2016-07-15 06    9.0    68.4    1004         25          
2016-07-15 12    8.5    69.0    1004         25          
2016-07-15 18    8.6    69.4    1000         30          
2016-07-16 00    8.7    69.7    1000         30          
2016-07-16 06    9.0    69.8     996    1    35          
2016-07-16 09    9.4    69.4     996    1    35          
2016-07-16 12    9.6    68.9     996    1    35          
2016-07-16 18   10.0    67.9     993    1    40          
2016-07-17 00   10.7    66.9     993    1    40          
2016-07-17 06   11.3    65.9     993    1    40          
2016-07-17 12   11.9    64.4     989    1    45          
2016-07-17 18   12.5    63.0     989    1    45          
2016-07-18 00   13.0    61.8     989    1    45          
2016-07-18 06   13.4    60.4     985    2    50          
2016-07-18 12   14.2    59.3     982    2    55          
2016-07-18 18   14.8    58.2     985    2    50          
2016-07-19 00   14.8    57.0     989    1    45          
2016-07-19 06   14.6    55.3    1003    1    35          
2016-07-19 12   14.6    54.5    1003    1    35          
2016-07-19 18   14.6    53.6    1000         30          
2016-07-20 00   14.7    52.2    1004         25          
2016-07-20 06   15.0    51.3    1004         25          
2016-07-20 12   15.3    50.4    1004         25          
2016-07-20 18   15.6    49.4    1007         20          
Winds are 10-min average.

Tropical cyclone tracks developed by Michael Bath using operational warnings and advisories and Google Maps.


[Australian Severe Weather index] [Copyright Notice] [Email Contacts] [Search This Site] [Privacy Policy]
Document: tropical_cyclone_abela.htm Updated: 4 July 2017